createdAt,value
2023-02-03T00:00:03.070Z,1008.9
2023-02-03T00:05:03.997Z,1008.93
2023-02-03T00:10:03.396Z,1008.99
2023-02-03T00:15:04.009Z,1009.03
2023-02-03T00:20:03.097Z,1009.01
2023-02-03T00:25:02.957Z,1009.03
2023-02-03T00:30:03.136Z,1009.07
2023-02-03T00:35:02.900Z,1009.06
2023-02-03T00:40:03.101Z,1009.08
2023-02-03T00:45:02.928Z,1009.1
2023-02-03T00:50:03.059Z,1009.15
2023-02-03T00:55:03.020Z,1009.15
2023-02-03T01:00:03.347Z,1009.27
2023-02-03T01:05:02.984Z,1009.31
2023-02-03T01:10:02.952Z,1009.25
2023-02-03T01:15:03.083Z,1009.26
2023-02-03T01:20:04.065Z,1009.25
2023-02-03T01:25:02.959Z,1009.26
2023-02-03T01:30:03.173Z,1009.26
2023-02-03T01:35:02.991Z,1009.31
2023-02-03T01:40:03.102Z,1009.43
2023-02-03T01:45:02.899Z,1009.59
2023-02-03T01:50:03.008Z,1009.59
2023-02-03T01:55:03.971Z,1009.54
2023-02-03T02:00:03.063Z,1009.53
2023-02-03T02:05:02.981Z,1009.64
2023-02-03T02:10:03.082Z,1009.65
2023-02-03T02:15:02.919Z,1009.74
2023-02-03T02:20:03.017Z,1009.83
2023-02-03T02:25:02.882Z,1009.81
2023-02-03T02:30:03.171Z,1009.68
2023-02-03T02:35:03.007Z,1009.67
2023-02-03T02:40:02.940Z,1009.65
2023-02-03T02:45:03.062Z,1009.7
2023-02-03T02:50:03.008Z,1009.79
2023-02-03T02:55:02.962Z,1009.8
2023-02-03T03:00:03.108Z,1009.75
2023-02-03T03:05:03.151Z,1009.71
2023-02-03T03:10:03.004Z,1009.71
2023-02-03T03:15:08.613Z,1009.74
2023-02-03T03:20:03.474Z,1009.72
2023-02-03T03:25:03.596Z,1009.68
2023-02-03T03:30:03.171Z,1009.73
2023-02-03T03:35:02.965Z,1009.71
2023-02-03T03:40:03.216Z,1009.64
2023-02-03T03:45:03.017Z,1009.6
2023-02-03T03:50:08.007Z,1009.48
2023-02-03T03:55:02.949Z,1009.44
2023-02-03T04:00:03.187Z,1009.37
2023-02-03T04:05:02.848Z,1009.31
2023-02-03T04:10:03.745Z,1009.37
2023-02-03T04:15:03.972Z,1009.33
2023-02-03T04:20:03.128Z,1009.36
2023-02-03T04:25:02.859Z,1009.45
2023-02-03T04:30:03.030Z,1009.47
2023-02-03T04:35:02.929Z,1009.39
2023-02-03T04:40:03.041Z,1009.46
2023-02-03T04:45:02.971Z,1009.42
2023-02-03T04:50:03.035Z,1009.35
2023-02-03T04:55:03.012Z,1009.31
2023-02-03T05:00:03.054Z,1009.31
2023-02-03T05:05:02.943Z,1009.33
2023-02-03T05:10:03.049Z,1009.25
2023-02-03T05:15:03.021Z,1009.19
2023-02-03T05:20:02.974Z,1009.06
2023-02-03T05:25:03.123Z,1008.95
2023-02-03T05:30:03.020Z,1008.76
2023-02-03T05:35:02.972Z,1008.65
2023-02-03T05:40:03.105Z,1008.56
2023-02-03T05:45:02.874Z,1008.65
2023-02-03T05:50:03.063Z,1008.9
2023-02-03T05:55:02.952Z,1008.93
2023-02-03T06:00:03.286Z,1009.05
2023-02-03T06:05:02.969Z,1009.06
2023-02-03T06:10:03.112Z,1008.95
2023-02-03T06:15:02.892Z,1008.85
2023-02-03T06:20:03.142Z,1008.77
2023-02-03T06:25:02.947Z,1008.68
2023-02-03T06:30:02.974Z,1008.71
2023-02-03T06:35:03.039Z,1008.65
2023-02-03T06:40:03.050Z,1008.52
2023-02-03T06:45:02.882Z,1008.32
2023-02-03T06:50:02.991Z,1008.14
2023-02-03T06:55:02.950Z,1008.09
2023-02-03T07:00:02.957Z,1007.88
2023-02-03T07:05:02.917Z,1007.62
2023-02-03T07:10:03.041Z,1007.25
2023-02-03T07:15:02.842Z,1007.03
2023-02-03T07:20:03.168Z,1006.81
2023-02-03T07:25:02.987Z,1006.64
2023-02-03T07:30:03.100Z,1006.62
2023-02-03T07:35:02.947Z,1006.58
2023-02-03T07:40:02.972Z,1006.43
2023-02-03T07:45:02.846Z,1006.3
2023-02-03T07:50:03.120Z,1006.51
2023-02-03T07:55:03.029Z,1006.52
2023-02-03T08:00:03.039Z,1006.33
2023-02-03T08:05:03.064Z,1006.66
2023-02-03T08:10:03.066Z,1006.91
2023-02-03T08:15:02.944Z,1006.94
2023-02-03T08:20:03.051Z,1006.99
2023-02-03T08:25:02.858Z,1007.06
2023-02-03T08:30:02.999Z,1007.02
2023-02-03T08:35:02.947Z,1007.0
2023-02-03T08:40:03.023Z,1007.4
2023-02-03T08:45:05.037Z,1007.67
2023-02-03T08:50:03.028Z,1007.89
2023-02-03T08:55:02.955Z,1008.16
2023-02-03T09:00:03.019Z,1008.36
2023-02-03T09:05:03.189Z,1008.57
2023-02-03T09:10:03.227Z,1008.5
2023-02-03T09:15:02.943Z,1008.48
2023-02-03T09:20:03.137Z,1008.56
2023-02-03T09:25:02.973Z,1008.57
2023-02-03T09:30:03.141Z,1008.61
2023-02-03T09:35:02.913Z,1008.75
2023-02-03T09:40:02.933Z,1009.01
2023-02-03T09:45:02.926Z,1009.01
2023-02-03T09:50:03.093Z,1009.04
2023-02-03T09:55:03.061Z,1008.99
2023-02-03T10:00:03.209Z,1008.97
2023-02-03T10:05:02.969Z,1009.06
2023-02-03T10:10:03.100Z,1009.11
2023-02-03T10:15:02.962Z,1009.16
2023-02-03T10:20:03.198Z,1009.27
2023-02-03T10:25:02.851Z,1009.36
2023-02-03T10:30:03.018Z,1009.54
2023-02-03T10:35:02.843Z,1009.65
2023-02-03T10:40:03.119Z,1009.76
2023-02-03T10:45:03.106Z,1009.89
2023-02-03T10:50:03.089Z,1009.94
2023-02-03T10:55:02.971Z,1010.0
2023-02-03T11:00:03.044Z,1010.04
2023-02-03T11:05:02.937Z,1010.06
2023-02-03T11:10:03.067Z,1010.08
2023-02-03T11:15:03.071Z,1010.04
2023-02-03T11:20:03.054Z,1010.09
2023-02-03T11:25:02.934Z,1010.11
2023-02-03T11:30:03.001Z,1010.11
2023-02-03T11:35:03.032Z,1010.06
2023-02-03T11:40:03.039Z,1010.06
2023-02-03T11:45:02.971Z,1010.17
2023-02-03T11:50:03.003Z,1010.24
2023-02-03T11:55:02.965Z,1010.21
2023-02-03T12:00:03.071Z,1010.3
2023-02-03T12:05:02.964Z,1010.4
2023-02-03T12:10:03.161Z,1010.29
2023-02-03T12:15:03.014Z,1010.36
2023-02-03T12:20:03.018Z,1010.38
2023-02-03T12:25:02.937Z,1010.32
2023-02-03T12:30:03.154Z,1010.34
2023-02-03T12:35:02.934Z,1010.37
2023-02-03T12:40:03.104Z,1010.41
2023-02-03T12:45:02.969Z,1010.4
2023-02-03T12:50:03.103Z,1010.34
2023-02-03T12:55:02.935Z,1010.35
2023-02-03T13:00:02.949Z,1010.45
2023-02-03T13:05:02.867Z,1010.56
2023-02-03T13:10:03.186Z,1010.66
2023-02-03T13:15:02.942Z,1010.66
2023-02-03T13:20:03.144Z,1010.68
2023-02-03T13:25:02.965Z,1010.6
2023-02-03T13:30:03.068Z,1010.49
2023-02-03T13:35:02.943Z,1010.49
2023-02-03T13:40:03.049Z,1010.47
2023-02-03T13:45:03.036Z,1010.44
2023-02-03T13:50:03.220Z,1010.42
2023-02-03T13:55:03.054Z,1010.33
2023-02-03T14:00:03.173Z,1010.29
2023-02-03T14:05:03.070Z,1010.29
2023-02-03T14:10:02.992Z,1010.34
2023-02-03T14:15:02.991Z,1010.29
2023-02-03T14:20:03.074Z,1010.27
2023-02-03T14:25:02.938Z,1010.18
2023-02-03T14:30:03.065Z,1010.14
2023-02-03T14:35:02.921Z,1010.1
2023-02-03T14:40:05.192Z,1010.1
2023-02-03T14:45:02.885Z,1010.0
2023-02-03T14:50:03.048Z,1009.94
2023-02-03T14:55:03.063Z,1009.89
2023-02-03T15:00:03.088Z,1009.82
2023-02-03T15:05:05.531Z,1009.76
2023-02-03T15:10:03.297Z,1009.73
2023-02-03T15:15:02.987Z,1009.69
2023-02-03T15:20:03.173Z,1009.77
2023-02-03T15:25:02.959Z,1009.78
2023-02-03T15:30:03.027Z,1009.7
2023-02-03T15:35:03.010Z,1009.58
2023-02-03T15:40:03.056Z,1009.51
2023-02-03T15:45:03.061Z,1009.48
2023-02-03T15:50:03.063Z,1009.55
2023-02-03T15:55:02.955Z,1009.55
2023-02-03T16:00:03.049Z,1009.55
2023-02-03T16:05:03.144Z,1009.48
2023-02-03T16:10:03.168Z,1009.41
2023-02-03T16:15:02.968Z,1009.32
2023-02-03T16:20:03.074Z,1009.18
2023-02-03T16:25:03.020Z,1009.07
2023-02-03T16:30:03.094Z,1008.91
2023-02-03T16:35:02.850Z,1008.79
2023-02-03T16:40:03.135Z,1008.68
2023-02-03T16:45:02.932Z,1008.49
2023-02-03T16:50:03.104Z,1008.26
2023-02-03T16:55:02.970Z,1008.14
2023-02-03T17:00:03.082Z,1008.13
2023-02-03T17:05:03.992Z,1008.09
2023-02-03T17:10:03.098Z,1007.98
2023-02-03T17:15:02.958Z,1008.03
2023-02-03T17:20:03.024Z,1008.11
2023-02-03T17:25:02.945Z,1008.09
2023-02-03T17:30:03.003Z,1008.09
2023-02-03T17:35:03.063Z,1008.18
2023-02-03T17:55:03.117Z,1008.69
2023-02-03T18:00:03.201Z,1008.66
2023-02-03T18:05:02.989Z,1008.55
2023-02-03T18:10:03.158Z,1008.54
2023-02-03T18:15:02.957Z,1008.55
2023-02-03T18:20:03.115Z,1008.38
2023-02-03T18:25:03.060Z,1008.38
2023-02-03T18:30:03.170Z,1008.3
2023-02-03T18:35:02.943Z,1008.23
2023-02-03T18:40:02.980Z,1008.14
2023-02-03T18:45:02.927Z,1008.14
2023-02-03T18:50:03.106Z,1008.09
2023-02-03T18:55:02.898Z,1008.02
2023-02-03T19:00:03.105Z,1007.96
2023-02-03T19:05:02.919Z,1007.93
2023-02-03T19:10:03.077Z,1007.89
2023-02-03T19:15:02.945Z,1007.95
2023-02-03T19:20:03.140Z,1007.99
2023-02-03T19:25:02.963Z,1007.95
2023-02-03T19:30:03.085Z,1007.92
2023-02-03T19:35:02.990Z,1007.89
2023-02-03T19:40:03.008Z,1007.87
2023-02-03T19:45:02.921Z,1007.77
2023-02-03T19:50:03.107Z,1007.57
2023-02-03T19:55:02.981Z,1007.47
2023-02-03T20:00:03.090Z,1007.48
2023-02-03T20:05:03.108Z,1007.57
2023-02-03T20:10:03.031Z,1007.81
2023-02-03T20:15:02.942Z,1007.91
2023-02-03T20:20:02.988Z,1008.13
2023-02-03T20:25:02.902Z,1008.13
2023-02-03T20:30:03.140Z,1008.15
2023-02-03T20:35:03.084Z,1008.16
2023-02-03T20:40:03.271Z,1008.19
2023-02-03T20:45:02.959Z,1008.11
2023-02-03T20:50:03.094Z,1008.05
2023-02-03T20:55:03.085Z,1008.07
2023-02-03T21:00:03.150Z,1008.03
2023-02-03T21:05:02.986Z,1008.05
2023-02-03T21:10:03.100Z,1008.06
2023-02-03T21:15:02.975Z,1008.07
2023-02-03T21:20:03.113Z,1008.11
2023-02-03T21:25:02.899Z,1008.1
2023-02-03T21:30:03.092Z,1008.12
2023-02-03T21:35:02.985Z,1008.18
2023-02-03T21:40:03.088Z,1008.16
2023-02-03T21:45:02.961Z,1008.07
2023-02-03T21:50:03.144Z,1008.09
2023-02-03T21:55:03.174Z,1008.13
2023-02-03T22:00:03.190Z,1008.17
2023-02-03T22:05:02.889Z,1008.22
2023-02-03T22:10:03.110Z,1008.27
2023-02-03T22:15:02.908Z,1008.25
2023-02-03T22:20:03.047Z,1008.37
2023-02-03T22:25:03.016Z,1008.48
2023-02-03T22:30:02.960Z,1008.66
2023-02-03T22:35:02.921Z,1008.76
2023-02-03T22:40:02.962Z,1008.87
2023-02-03T22:45:03.076Z,1008.95
2023-02-03T22:50:03.220Z,1008.99
2023-02-03T22:55:02.885Z,1009.07
2023-02-03T23:00:03.113Z,1009.07
2023-02-03T23:05:03.037Z,1009.16
2023-02-03T23:10:03.075Z,1009.28
2023-02-03T23:15:02.869Z,1009.28
2023-02-03T23:20:03.027Z,1009.37
2023-02-03T23:25:02.973Z,1009.39
2023-02-03T23:30:03.000Z,1009.4
2023-02-03T23:35:02.984Z,1009.43
2023-02-03T23:40:03.019Z,1009.43
2023-02-03T23:45:02.985Z,1009.43
2023-02-03T23:50:02.971Z,1009.44
2023-02-03T23:55:03.005Z,1009.52
